sensor_id;sensor_type;location;lat;lon;timestamp;temperature;humidity
12761;DHT22;6444;49.742;6.114;2023-02-01T00:01:36;6.90;99.90
12761;DHT22;6444;49.742;6.114;2023-02-01T00:04:03;7.20;99.90
12761;DHT22;6444;49.742;6.114;2023-02-01T00:06:29;6.90;99.90
12761;DHT22;6444;49.742;6.114;2023-02-01T00:08:56;7.00;99.90
12761;DHT22;6444;49.742;6.114;2023-02-01T00:11:23;7.00;99.90
12761;DHT22;6444;49.742;6.114;2023-02-01T00:13:49;6.70;99.90
12761;DHT22;6444;49.742;6.114;2023-02-01T00:16:17;6.80;99.90
12761;DHT22;6444;49.742;6.114;2023-02-01T00:18:43;6.90;99.90
12761;DHT22;6444;49.742;6.114;2023-02-01T00:21:12;7.00;99.90
12761;DHT22;6444;49.742;6.114;2023-02-01T00:23:38;7.00;99.90
12761;DHT22;6444;49.742;6.114;2023-02-01T00:26:06;6.80;99.90
12761;DHT22;6444;49.742;6.114;2023-02-01T00:28:32;6.90;99.90
12761;DHT22;6444;49.742;6.114;2023-02-01T00:30:59;7.10;99.90
12761;DHT22;6444;49.742;6.114;2023-02-01T00:33:25;7.30;99.90
12761;DHT22;6444;49.742;6.114;2023-02-01T00:35:55;7.00;99.90
12761;DHT22;6444;49.742;6.114;2023-02-01T00:38:18;6.80;99.90
12761;DHT22;6444;49.742;6.114;2023-02-01T00:40:45;6.80;99.90
12761;DHT22;6444;49.742;6.114;2023-02-01T00:43:11;6.70;99.90
12761;DHT22;6444;49.742;6.114;2023-02-01T00:45:38;6.80;99.90
12761;DHT22;6444;49.742;6.114;2023-02-01T00:48:05;6.80;99.90
12761;DHT22;6444;49.742;6.114;2023-02-01T00:50:32;6.80;99.90
12761;DHT22;6444;49.742;6.114;2023-02-01T00:52:59;6.80;99.90
12761;DHT22;6444;49.742;6.114;2023-02-01T00:55:25;6.90;99.90
12761;DHT22;6444;49.742;6.114;2023-02-01T00:57:52;7.00;99.90
12761;DHT22;6444;49.742;6.114;2023-02-01T01:00:19;7.30;99.90
12761;DHT22;6444;49.742;6.114;2023-02-01T01:02:45;7.30;99.90
12761;DHT22;6444;49.742;6.114;2023-02-01T01:05:12;7.00;99.90
12761;DHT22;6444;49.742;6.114;2023-02-01T01:07:38;6.90;99.90
12761;DHT22;6444;49.742;6.114;2023-02-01T01:10:05;6.80;99.90
12761;DHT22;6444;49.742;6.114;2023-02-01T01:12:32;6.90;99.90
12761;DHT22;6444;49.742;6.114;2023-02-01T01:14:58;7.10;99.90
12761;DHT22;6444;49.742;6.114;2023-02-01T01:17:26;7.60;99.90
12761;DHT22;6444;49.742;6.114;2023-02-01T01:19:52;7.60;99.90
12761;DHT22;6444;49.742;6.114;2023-02-01T01:22:19;7.40;99.90
12761;DHT22;6444;49.742;6.114;2023-02-01T01:24:46;7.10;99.90
12761;DHT22;6444;49.742;6.114;2023-02-01T01:27:12;7.10;99.90
12761;DHT22;6444;49.742;6.114;2023-02-01T01:29:39;7.30;99.90
12761;DHT22;6444;49.742;6.114;2023-02-01T01:32:05;7.40;99.90
12761;DHT22;6444;49.742;6.114;2023-02-01T01:34:32;7.30;99.90
12761;DHT22;6444;49.742;6.114;2023-02-01T01:36:59;7.20;99.90
12761;DHT22;6444;49.742;6.114;2023-02-01T01:39:25;7.20;99.90
12761;DHT22;6444;49.742;6.114;2023-02-01T01:41:52;7.20;99.90
12761;DHT22;6444;49.742;6.114;2023-02-01T01:47:23;6.70;99.90
12761;DHT22;6444;49.742;6.114;2023-02-01T01:49:50;6.60;99.90
12761;DHT22;6444;49.742;6.114;2023-02-01T01:52:16;6.70;99.90
12761;DHT22;6444;49.742;6.114;2023-02-01T01:54:47;7.10;99.90
12761;DHT22;6444;49.742;6.114;2023-02-01T01:57:32;7.10;99.90
12761;DHT22;6444;49.742;6.114;2023-02-01T02:00:05;7.10;99.90
12761;DHT22;6444;49.742;6.114;2023-02-01T02:02:31;6.90;99.90
12761;DHT22;6444;49.742;6.114;2023-02-01T02:04:58;6.80;99.90
12761;DHT22;6444;49.742;6.114;2023-02-01T02:07:26;6.80;99.90
12761;DHT22;6444;49.742;6.114;2023-02-01T02:09:51;6.90;99.90
12761;DHT22;6444;49.742;6.114;2023-02-01T02:12:18;6.90;99.90
12761;DHT22;6444;49.742;6.114;2023-02-01T02:14:45;7.20;99.90
12761;DHT22;6444;49.742;6.114;2023-02-01T02:25:34;6.70;99.90
12761;DHT22;6444;49.742;6.114;2023-02-01T02:36:10;7.20;99.90
12761;DHT22;6444;49.742;6.114;2023-02-01T02:41:32;7.10;99.90
12761;DHT22;6444;49.742;6.114;2023-02-01T02:47:25;7.20;99.90
12761;DHT22;6444;49.742;6.114;2023-02-01T02:49:54;7.20;99.90
12761;DHT22;6444;49.742;6.114;2023-02-01T02:52:19;7.60;99.90
12761;DHT22;6444;49.742;6.114;2023-02-01T02:55:04;7.60;99.90
12761;DHT22;6444;49.742;6.114;2023-02-01T02:57:31;7.80;99.90
12761;DHT22;6444;49.742;6.114;2023-02-01T03:00:16;7.80;99.90
12761;DHT22;6444;49.742;6.114;2023-02-01T03:03:01;7.90;99.90
12761;DHT22;6444;49.742;6.114;2023-02-01T03:05:46;7.80;99.90
12761;DHT22;6444;49.742;6.114;2023-02-01T03:08:19;8.10;99.90
12761;DHT22;6444;49.742;6.114;2023-02-01T03:13:20;7.70;99.90
12761;DHT22;6444;49.742;6.114;2023-02-01T03:15:39;7.90;99.90
12761;DHT22;6444;49.742;6.114;2023-02-01T03:18:07;7.60;99.90
12761;DHT22;6444;49.742;6.114;2023-02-01T03:20:31;7.30;99.90
12761;DHT22;6444;49.742;6.114;2023-02-01T03:22:58;7.30;99.90
12761;DHT22;6444;49.742;6.114;2023-02-01T03:25:25;7.20;99.90
12761;DHT22;6444;49.742;6.114;2023-02-01T03:27:59;7.40;99.90
12761;DHT22;6444;49.742;6.114;2023-02-01T03:30:24;7.70;99.90
12761;DHT22;6444;49.742;6.114;2023-02-01T03:32:51;7.80;99.90
12761;DHT22;6444;49.742;6.114;2023-02-01T03:35:40;7.50;99.90
12761;DHT22;6444;49.742;6.114;2023-02-01T03:38:09;7.40;99.90
12761;DHT22;6444;49.742;6.114;2023-02-01T03:40:32;7.50;99.90
12761;DHT22;6444;49.742;6.114;2023-02-01T03:42:58;7.50;99.90
12761;DHT22;6444;49.742;6.114;2023-02-01T03:45:28;7.50;99.90
12761;DHT22;6444;49.742;6.114;2023-02-01T03:47:56;7.30;99.90
12761;DHT22;6444;49.742;6.114;2023-02-01T03:50:21;7.30;99.90
12761;DHT22;6444;49.742;6.114;2023-02-01T03:52:58;7.40;99.90
12761;DHT22;6444;49.742;6.114;2023-02-01T03:55:23;7.70;99.90
12761;DHT22;6444;49.742;6.114;2023-02-01T03:57:54;7.60;99.90
12761;DHT22;6444;49.742;6.114;2023-02-01T04:00:21;7.70;99.90
12761;DHT22;6444;49.742;6.114;2023-02-01T04:02:46;7.50;99.90
12761;DHT22;6444;49.742;6.114;2023-02-01T04:05:12;7.60;99.90
12761;DHT22;6444;49.742;6.114;2023-02-01T04:07:39;7.50;99.90
12761;DHT22;6444;49.742;6.114;2023-02-01T04:10:06;7.60;99.90
12761;DHT22;6444;49.742;6.114;2023-02-01T04:12:32;7.50;99.90
12761;DHT22;6444;49.742;6.114;2023-02-01T04:15:00;7.50;99.90
12761;DHT22;6444;49.742;6.114;2023-02-01T04:17:26;7.40;99.90
12761;DHT22;6444;49.742;6.114;2023-02-01T04:19:53;7.70;99.90
12761;DHT22;6444;49.742;6.114;2023-02-01T04:22:20;7.30;99.90
12761;DHT22;6444;49.742;6.114;2023-02-01T04:24:46;7.20;99.90
12761;DHT22;6444;49.742;6.114;2023-02-01T04:27:13;7.20;99.90
12761;DHT22;6444;49.742;6.114;2023-02-01T04:29:39;7.50;99.90
12761;DHT22;6444;49.742;6.114;2023-02-01T04:32:06;7.90;99.90
12761;DHT22;6444;49.742;6.114;2023-02-01T04:34:33;7.80;99.90
12761;DHT22;6444;49.742;6.114;2023-02-01T04:36:59;7.60;99.90
12761;DHT22;6444;49.742;6.114;2023-02-01T04:39:27;7.20;99.90
12761;DHT22;6444;49.742;6.114;2023-02-01T04:41:53;7.20;99.90
12761;DHT22;6444;49.742;6.114;2023-02-01T04:44:20;7.30;99.90
12761;DHT22;6444;49.742;6.114;2023-02-01T04:46:47;7.40;99.90
12761;DHT22;6444;49.742;6.114;2023-02-01T04:49:14;7.50;99.90
12761;DHT22;6444;49.742;6.114;2023-02-01T04:51:41;7.50;99.90
12761;DHT22;6444;49.742;6.114;2023-02-01T04:54:07;7.60;99.90
12761;DHT22;6444;49.742;6.114;2023-02-01T04:56:35;7.50;99.90
12761;DHT22;6444;49.742;6.114;2023-02-01T04:59:01;7.40;99.90
12761;DHT22;6444;49.742;6.114;2023-02-01T05:01:31;7.30;99.90
12761;DHT22;6444;49.742;6.114;2023-02-01T05:03:57;7.30;99.90
12761;DHT22;6444;49.742;6.114;2023-02-01T05:06:24;7.30;99.90
12761;DHT22;6444;49.742;6.114;2023-02-01T05:08:51;7.40;99.90
12761;DHT22;6444;49.742;6.114;2023-02-01T05:11:17;7.20;99.90
12761;DHT22;6444;49.742;6.114;2023-02-01T05:14:02;7.30;99.90
12761;DHT22;6444;49.742;6.114;2023-02-01T05:16:28;7.50;99.90
12761;DHT22;6444;49.742;6.114;2023-02-01T05:18:55;8.20;99.90
12761;DHT22;6444;49.742;6.114;2023-02-01T05:21:22;8.00;99.90
12761;DHT22;6444;49.742;6.114;2023-02-01T05:23:48;8.10;99.90
12761;DHT22;6444;49.742;6.114;2023-02-01T05:26:33;8.60;99.90
12761;DHT22;6444;49.742;6.114;2023-02-01T05:28:59;8.40;99.90
12761;DHT22;6444;49.742;6.114;2023-02-01T05:31:26;8.40;99.90
12761;DHT22;6444;49.742;6.114;2023-02-01T05:33:53;8.10;99.90
12761;DHT22;6444;49.742;6.114;2023-02-01T05:36:19;8.10;99.90
12761;DHT22;6444;49.742;6.114;2023-02-01T05:38:47;7.60;99.90
12761;DHT22;6444;49.742;6.114;2023-02-01T05:41:13;7.50;99.90
12761;DHT22;6444;49.742;6.114;2023-02-01T05:43:40;8.10;99.90
12761;DHT22;6444;49.742;6.114;2023-02-01T05:46:06;8.30;99.90
12761;DHT22;6444;49.742;6.114;2023-02-01T05:48:33;8.40;99.90
12761;DHT22;6444;49.742;6.114;2023-02-01T05:51:00;8.60;99.90
12761;DHT22;6444;49.742;6.114;2023-02-01T05:53:26;8.70;99.90
12761;DHT22;6444;49.742;6.114;2023-02-01T05:55:53;8.70;99.90
12761;DHT22;6444;49.742;6.114;2023-02-01T05:58:20;8.20;99.90
12761;DHT22;6444;49.742;6.114;2023-02-01T06:00:46;8.10;99.90
12761;DHT22;6444;49.742;6.114;2023-02-01T06:03:13;8.30;99.90
12761;DHT22;6444;49.742;6.114;2023-02-01T06:05:42;8.60;99.90
12761;DHT22;6444;49.742;6.114;2023-02-01T06:08:07;8.60;99.90
12761;DHT22;6444;49.742;6.114;2023-02-01T06:10:34;8.30;99.90
12761;DHT22;6444;49.742;6.114;2023-02-01T06:13:01;8.30;99.90
12761;DHT22;6444;49.742;6.114;2023-02-01T06:15:28;8.30;99.90
12761;DHT22;6444;49.742;6.114;2023-02-01T06:17:54;8.40;99.90
12761;DHT22;6444;49.742;6.114;2023-02-01T06:20:21;8.10;99.90
12761;DHT22;6444;49.742;6.114;2023-02-01T06:22:48;7.30;99.90
12761;DHT22;6444;49.742;6.114;2023-02-01T06:25:15;7.20;99.90
12761;DHT22;6444;49.742;6.114;2023-02-01T06:27:41;7.10;99.90
12761;DHT22;6444;49.742;6.114;2023-02-01T06:30:09;6.70;99.90
12761;DHT22;6444;49.742;6.114;2023-02-01T06:32:35;6.60;99.90
12761;DHT22;6444;49.742;6.114;2023-02-01T06:35:02;6.50;99.90
12761;DHT22;6444;49.742;6.114;2023-02-01T06:37:29;6.70;99.90
12761;DHT22;6444;49.742;6.114;2023-02-01T06:39:56;6.60;99.90
12761;DHT22;6444;49.742;6.114;2023-02-01T06:42:23;6.60;99.90
12761;DHT22;6444;49.742;6.114;2023-02-01T06:44:49;6.50;99.90
12761;DHT22;6444;49.742;6.114;2023-02-01T06:47:16;6.90;99.90
12761;DHT22;6444;49.742;6.114;2023-02-01T06:49:43;6.70;99.90
12761;DHT22;6444;49.742;6.114;2023-02-01T06:52:09;6.40;99.90
12761;DHT22;6444;49.742;6.114;2023-02-01T06:54:36;6.30;99.90
12761;DHT22;6444;49.742;6.114;2023-02-01T06:57:03;6.30;99.90
12761;DHT22;6444;49.742;6.114;2023-02-01T06:59:29;6.10;99.90
12761;DHT22;6444;49.742;6.114;2023-02-01T07:01:56;6.00;99.90
12761;DHT22;6444;49.742;6.114;2023-02-01T07:04:23;6.00;99.90
12761;DHT22;6444;49.742;6.114;2023-02-01T07:06:50;6.40;99.90
12761;DHT22;6444;49.742;6.114;2023-02-01T07:09:16;6.20;99.90
12761;DHT22;6444;49.742;6.114;2023-02-01T07:11:44;6.20;99.90
12761;DHT22;6444;49.742;6.114;2023-02-01T07:14:10;6.10;99.90
12761;DHT22;6444;49.742;6.114;2023-02-01T07:16:37;6.10;99.90
12761;DHT22;6444;49.742;6.114;2023-02-01T07:19:04;6.00;99.90
12761;DHT22;6444;49.742;6.114;2023-02-01T07:21:31;5.90;99.90
12761;DHT22;6444;49.742;6.114;2023-02-01T07:23:58;5.80;99.90
12761;DHT22;6444;49.742;6.114;2023-02-01T07:26:24;6.00;99.90
12761;DHT22;6444;49.742;6.114;2023-02-01T07:28:52;6.90;99.90
12761;DHT22;6444;49.742;6.114;2023-02-01T07:31:18;6.80;99.90
12761;DHT22;6444;49.742;6.114;2023-02-01T07:33:45;6.50;99.90
12761;DHT22;6444;49.742;6.114;2023-02-01T07:36:16;6.70;99.90
12761;DHT22;6444;49.742;6.114;2023-02-01T07:38:42;6.70;99.90
12761;DHT22;6444;49.742;6.114;2023-02-01T07:41:08;6.30;99.90
12761;DHT22;6444;49.742;6.114;2023-02-01T07:43:35;6.20;99.90
12761;DHT22;6444;49.742;6.114;2023-02-01T07:46:02;6.00;99.90
12761;DHT22;6444;49.742;6.114;2023-02-01T07:48:29;6.50;99.90
12761;DHT22;6444;49.742;6.114;2023-02-01T07:51:03;6.50;99.90
12761;DHT22;6444;49.742;6.114;2023-02-01T07:53:29;7.00;99.90
12761;DHT22;6444;49.742;6.114;2023-02-01T07:55:55;6.70;99.90
12761;DHT22;6444;49.742;6.114;2023-02-01T07:58:25;6.80;99.90
12761;DHT22;6444;49.742;6.114;2023-02-01T08:00:51;6.60;99.90
12761;DHT22;6444;49.742;6.114;2023-02-01T08:03:35;6.60;99.90
12761;DHT22;6444;49.742;6.114;2023-02-01T08:06:02;6.70;99.90
12761;DHT22;6444;49.742;6.114;2023-02-01T08:08:30;6.90;99.90
12761;DHT22;6444;49.742;6.114;2023-02-01T08:10:59;6.90;99.90
12761;DHT22;6444;49.742;6.114;2023-02-01T08:13:26;6.90;99.90
12761;DHT22;6444;49.742;6.114;2023-02-01T08:15:52;6.80;99.90
12761;DHT22;6444;49.742;6.114;2023-02-01T08:18:19;6.70;99.90
12761;DHT22;6444;49.742;6.114;2023-02-01T08:20:46;6.30;99.90
12761;DHT22;6444;49.742;6.114;2023-02-01T08:23:12;6.30;99.90
12761;DHT22;6444;49.742;6.114;2023-02-01T08:25:40;6.60;99.90
12761;DHT22;6444;49.742;6.114;2023-02-01T08:28:07;6.50;99.90
12761;DHT22;6444;49.742;6.114;2023-02-01T08:30:33;6.70;99.90
12761;DHT22;6444;49.742;6.114;2023-02-01T08:32:59;6.40;99.90
12761;DHT22;6444;49.742;6.114;2023-02-01T08:35:27;6.60;99.90
12761;DHT22;6444;49.742;6.114;2023-02-01T08:37:53;6.60;99.90
12761;DHT22;6444;49.742;6.114;2023-02-01T08:40:20;6.80;99.90
12761;DHT22;6444;49.742;6.114;2023-02-01T08:42:47;7.20;99.90
12761;DHT22;6444;49.742;6.114;2023-02-01T08:45:23;7.20;99.90
12761;DHT22;6444;49.742;6.114;2023-02-01T08:47:50;7.10;99.90
12761;DHT22;6444;49.742;6.114;2023-02-01T08:50:16;7.10;99.90
12761;DHT22;6444;49.742;6.114;2023-02-01T08:52:42;7.20;99.90
12761;DHT22;6444;49.742;6.114;2023-02-01T08:55:10;7.30;99.90
12761;DHT22;6444;49.742;6.114;2023-02-01T08:57:37;7.30;99.90
12761;DHT22;6444;49.742;6.114;2023-02-01T09:00:05;7.00;99.90
12761;DHT22;6444;49.742;6.114;2023-02-01T09:02:31;7.00;99.90
12761;DHT22;6444;49.742;6.114;2023-02-01T09:04:57;7.30;99.90
12761;DHT22;6444;49.742;6.114;2023-02-01T09:07:24;7.60;99.90
12761;DHT22;6444;49.742;6.114;2023-02-01T09:09:51;7.60;99.90
12761;DHT22;6444;49.742;6.114;2023-02-01T09:12:18;7.50;99.90
12761;DHT22;6444;49.742;6.114;2023-02-01T09:14:44;7.60;99.90
12761;DHT22;6444;49.742;6.114;2023-02-01T09:17:12;8.00;99.90
12761;DHT22;6444;49.742;6.114;2023-02-01T09:19:39;8.00;99.90
12761;DHT22;6444;49.742;6.114;2023-02-01T09:22:06;7.80;99.90
12761;DHT22;6444;49.742;6.114;2023-02-01T09:24:33;7.80;99.90
12761;DHT22;6444;49.742;6.114;2023-02-01T09:26:59;7.60;99.90
12761;DHT22;6444;49.742;6.114;2023-02-01T09:29:26;7.00;99.90
12761;DHT22;6444;49.742;6.114;2023-02-01T09:31:53;7.00;99.90
12761;DHT22;6444;49.742;6.114;2023-02-01T09:34:19;7.10;99.90
12761;DHT22;6444;49.742;6.114;2023-02-01T09:36:46;6.70;99.90
12761;DHT22;6444;49.742;6.114;2023-02-01T09:39:12;6.70;99.90
12761;DHT22;6444;49.742;6.114;2023-02-01T09:41:51;7.10;99.90
12761;DHT22;6444;49.742;6.114;2023-02-01T09:44:31;7.20;99.90
12761;DHT22;6444;49.742;6.114;2023-02-01T09:46:54;7.20;99.90
12761;DHT22;6444;49.742;6.114;2023-02-01T09:49:24;7.30;99.90
12761;DHT22;6444;49.742;6.114;2023-02-01T09:51:48;7.30;99.90
12761;DHT22;6444;49.742;6.114;2023-02-01T09:54:20;7.40;99.90
12761;DHT22;6444;49.742;6.114;2023-02-01T09:57:06;7.80;99.90
12761;DHT22;6444;49.742;6.114;2023-02-01T09:59:43;7.90;99.90
12761;DHT22;6444;49.742;6.114;2023-02-01T10:02:17;7.60;99.90
12761;DHT22;6444;49.742;6.114;2023-02-01T10:04:42;7.50;99.90
12761;DHT22;6444;49.742;6.114;2023-02-01T10:09:52;7.20;99.90
12761;DHT22;6444;49.742;6.114;2023-02-01T10:25:37;8.30;99.90
12761;DHT22;6444;49.742;6.114;2023-02-01T10:28:03;8.30;99.90
12761;DHT22;6444;49.742;6.114;2023-02-01T10:30:38;8.40;99.90
12761;DHT22;6444;49.742;6.114;2023-02-01T10:33:49;8.40;99.90
12761;DHT22;6444;49.742;6.114;2023-02-01T10:35:28;8.70;99.90
12761;DHT22;6444;49.742;6.114;2023-02-01T10:37:55;8.90;99.90
12761;DHT22;6444;49.742;6.114;2023-02-01T10:40:22;8.60;99.90
12761;DHT22;6444;49.742;6.114;2023-02-01T10:42:57;9.10;99.90
12761;DHT22;6444;49.742;6.114;2023-02-01T10:45:21;9.00;99.90
12761;DHT22;6444;49.742;6.114;2023-02-01T10:47:48;8.80;99.90
12761;DHT22;6444;49.742;6.114;2023-02-01T10:53:12;8.40;99.90
12761;DHT22;6444;49.742;6.114;2023-02-01T10:55:46;8.40;99.90
12761;DHT22;6444;49.742;6.114;2023-02-01T10:58:15;8.60;99.90
12761;DHT22;6444;49.742;6.114;2023-02-01T11:00:47;8.60;99.90
12761;DHT22;6444;49.742;6.114;2023-02-01T11:03:27;8.70;99.90
12761;DHT22;6444;49.742;6.114;2023-02-01T11:05:49;9.20;99.90
12761;DHT22;6444;49.742;6.114;2023-02-01T11:08:16;9.20;99.90
12761;DHT22;6444;49.742;6.114;2023-02-01T11:10:42;9.10;99.90
12761;DHT22;6444;49.742;6.114;2023-02-01T11:13:16;9.20;99.90
12761;DHT22;6444;49.742;6.114;2023-02-01T11:15:45;9.60;99.90
12761;DHT22;6444;49.742;6.114;2023-02-01T11:18:19;9.50;99.90
12761;DHT22;6444;49.742;6.114;2023-02-01T11:20:45;9.30;99.90
12761;DHT22;6444;49.742;6.114;2023-02-01T11:23:26;9.10;99.90
12761;DHT22;6444;49.742;6.114;2023-02-01T11:25:57;8.50;99.90
12761;DHT22;6444;49.742;6.114;2023-02-01T11:28:26;8.40;99.90
12761;DHT22;6444;49.742;6.114;2023-02-01T11:30:53;8.30;99.90
12761;DHT22;6444;49.742;6.114;2023-02-01T11:33:19;9.00;99.90
12761;DHT22;6444;49.742;6.114;2023-02-01T11:35:47;8.80;99.90
12761;DHT22;6444;49.742;6.114;2023-02-01T11:38:29;8.80;99.90
12761;DHT22;6444;49.742;6.114;2023-02-01T11:40:52;8.80;99.90
12761;DHT22;6444;49.742;6.114;2023-02-01T11:43:27;8.80;99.90
12761;DHT22;6444;49.742;6.114;2023-02-01T11:45:55;8.80;99.90
12761;DHT22;6444;49.742;6.114;2023-02-01T11:48:21;8.50;99.90
12761;DHT22;6444;49.742;6.114;2023-02-01T11:51:19;8.50;99.90
12761;DHT22;6444;49.742;6.114;2023-02-01T11:56:36;8.20;99.90
12761;DHT22;6444;49.742;6.114;2023-02-01T12:02:15;8.20;99.90
12761;DHT22;6444;49.742;6.114;2023-02-01T12:12:59;8.50;99.90
12761;DHT22;6444;49.742;6.114;2023-02-01T12:15:33;8.40;99.90
12761;DHT22;6444;49.742;6.114;2023-02-01T12:28:54;9.10;99.90
12761;DHT22;6444;49.742;6.114;2023-02-01T12:31:34;8.90;99.90
12761;DHT22;6444;49.742;6.114;2023-02-01T12:36:46;8.90;99.90
12761;DHT22;6444;49.742;6.114;2023-02-01T12:41:48;8.60;99.90
12761;DHT22;6444;49.742;6.114;2023-02-01T12:46:59;9.00;99.90
12761;DHT22;6444;49.742;6.114;2023-02-01T12:49:47;8.40;99.90
12761;DHT22;6444;49.742;6.114;2023-02-01T12:52:32;8.10;99.90
12761;DHT22;6444;49.742;6.114;2023-02-01T12:55:08;8.50;99.90
12761;DHT22;6444;49.742;6.114;2023-02-01T12:57:36;9.30;99.90
12761;DHT22;6444;49.742;6.114;2023-02-01T13:02:47;9.10;99.90
12761;DHT22;6444;49.742;6.114;2023-02-01T13:05:21;9.50;99.90
12761;DHT22;6444;49.742;6.114;2023-02-01T13:08:01;9.30;99.90
12761;DHT22;6444;49.742;6.114;2023-02-01T13:10:38;9.10;99.90
12761;DHT22;6444;49.742;6.114;2023-02-01T13:15:57;9.60;99.90
12761;DHT22;6444;49.742;6.114;2023-02-01T13:18:20;8.80;99.90
12761;DHT22;6444;49.742;6.114;2023-02-01T13:21:02;8.80;99.90
12761;DHT22;6444;49.742;6.114;2023-02-01T13:23:28;8.90;99.90
12761;DHT22;6444;49.742;6.114;2023-02-01T13:25:52;9.10;99.90
12761;DHT22;6444;49.742;6.114;2023-02-01T13:36:52;9.00;99.90
12761;DHT22;6444;49.742;6.114;2023-02-01T13:42:13;8.80;99.90
12761;DHT22;6444;49.742;6.114;2023-02-01T13:44:34;8.50;99.90
12761;DHT22;6444;49.742;6.114;2023-02-01T13:47:00;8.50;99.90
12761;DHT22;6444;49.742;6.114;2023-02-01T13:49:27;8.90;99.90
12761;DHT22;6444;49.742;6.114;2023-02-01T13:51:54;8.90;99.90
12761;DHT22;6444;49.742;6.114;2023-02-01T13:54:24;8.90;99.90
12761;DHT22;6444;49.742;6.114;2023-02-01T13:56:49;8.70;99.90
12761;DHT22;6444;49.742;6.114;2023-02-01T14:05:08;9.00;99.90
12761;DHT22;6444;49.742;6.114;2023-02-01T14:07:32;8.80;99.90
12761;DHT22;6444;49.742;6.114;2023-02-01T14:09:59;8.80;99.90
12761;DHT22;6444;49.742;6.114;2023-02-01T14:12:44;8.80;99.90
12761;DHT22;6444;49.742;6.114;2023-02-01T14:15:25;8.80;99.90
12761;DHT22;6444;49.742;6.114;2023-02-01T14:17:49;9.00;99.90
12761;DHT22;6444;49.742;6.114;2023-02-01T14:20:39;8.80;99.90
12761;DHT22;6444;49.742;6.114;2023-02-01T14:23:00;8.50;99.90
12761;DHT22;6444;49.742;6.114;2023-02-01T14:25:31;8.60;99.90
12761;DHT22;6444;49.742;6.114;2023-02-01T14:27:53;8.50;99.90
12761;DHT22;6444;49.742;6.114;2023-02-01T14:30:19;8.60;99.90
12761;DHT22;6444;49.742;6.114;2023-02-01T14:32:46;8.80;99.90
12761;DHT22;6444;49.742;6.114;2023-02-01T14:35:24;8.70;99.90
12761;DHT22;6444;49.742;6.114;2023-02-01T14:37:50;9.10;99.90
12761;DHT22;6444;49.742;6.114;2023-02-01T14:40:23;8.60;99.90
12761;DHT22;6444;49.742;6.114;2023-02-01T14:42:49;8.80;99.90
12761;DHT22;6444;49.742;6.114;2023-02-01T14:47:53;9.00;99.90
12761;DHT22;6444;49.742;6.114;2023-02-01T14:55:59;8.80;99.90
12761;DHT22;6444;49.742;6.114;2023-02-01T15:00:59;8.40;99.90
12761;DHT22;6444;49.742;6.114;2023-02-01T15:06:44;8.70;99.90
12761;DHT22;6444;49.742;6.114;2023-02-01T15:09:44;8.50;99.90
12761;DHT22;6444;49.742;6.114;2023-02-01T15:14:41;8.40;99.90
12761;DHT22;6444;49.742;6.114;2023-02-01T15:19:57;7.80;99.90
12761;DHT22;6444;49.742;6.114;2023-02-01T15:22:23;8.00;99.90
12761;DHT22;6444;49.742;6.114;2023-02-01T15:24:53;7.80;99.90
12761;DHT22;6444;49.742;6.114;2023-02-01T15:27:19;8.20;99.90
12761;DHT22;6444;49.742;6.114;2023-02-01T15:29:46;8.50;99.90
12761;DHT22;6444;49.742;6.114;2023-02-01T15:32:31;8.50;99.90
12761;DHT22;6444;49.742;6.114;2023-02-01T15:34:54;8.20;99.90
12761;DHT22;6444;49.742;6.114;2023-02-01T15:37:21;8.20;99.90
12761;DHT22;6444;49.742;6.114;2023-02-01T15:42:49;8.20;99.90
12761;DHT22;6444;49.742;6.114;2023-02-01T15:45:21;8.30;99.90
12761;DHT22;6444;49.742;6.114;2023-02-01T15:47:52;8.70;99.90
12761;DHT22;6444;49.742;6.114;2023-02-01T15:50:19;8.80;99.90
12761;DHT22;6444;49.742;6.114;2023-02-01T15:52:46;8.90;99.90
12761;DHT22;6444;49.742;6.114;2023-02-01T15:55:19;8.90;99.90
12761;DHT22;6444;49.742;6.114;2023-02-01T15:57:44;8.60;99.90
12761;DHT22;6444;49.742;6.114;2023-02-01T16:00:34;8.40;99.90
12761;DHT22;6444;49.742;6.114;2023-02-01T16:03:02;8.40;99.90
12761;DHT22;6444;49.742;6.114;2023-02-01T16:05:38;8.30;99.90
12761;DHT22;6444;49.742;6.114;2023-02-01T16:08:14;8.10;99.90
12761;DHT22;6444;49.742;6.114;2023-02-01T16:10:30;8.10;99.90
12761;DHT22;6444;49.742;6.114;2023-02-01T16:12:57;8.10;99.90
12761;DHT22;6444;49.742;6.114;2023-02-01T16:15:23;8.00;99.90
12761;DHT22;6444;49.742;6.114;2023-02-01T16:17:51;7.70;99.90
12761;DHT22;6444;49.742;6.114;2023-02-01T16:20:17;7.60;99.90
12761;DHT22;6444;49.742;6.114;2023-02-01T16:22:44;7.50;99.90
12761;DHT22;6444;49.742;6.114;2023-02-01T16:25:11;7.60;99.90
12761;DHT22;6444;49.742;6.114;2023-02-01T16:27:38;7.50;99.90
12761;DHT22;6444;49.742;6.114;2023-02-01T16:30:05;7.90;99.90
12761;DHT22;6444;49.742;6.114;2023-02-01T16:32:31;7.40;99.90
12761;DHT22;6444;49.742;6.114;2023-02-01T16:34:58;7.40;99.90
12761;DHT22;6444;49.742;6.114;2023-02-01T16:37:24;7.40;99.90
12761;DHT22;6444;49.742;6.114;2023-02-01T16:39:51;7.30;99.90
12761;DHT22;6444;49.742;6.114;2023-02-01T16:42:18;7.40;99.90
12761;DHT22;6444;49.742;6.114;2023-02-01T16:44:44;7.30;99.90
12761;DHT22;6444;49.742;6.114;2023-02-01T16:47:16;7.60;99.90
12761;DHT22;6444;49.742;6.114;2023-02-01T16:49:41;7.50;99.90
12761;DHT22;6444;49.742;6.114;2023-02-01T16:52:11;7.40;99.90
12761;DHT22;6444;49.742;6.114;2023-02-01T16:54:34;7.80;99.90
12761;DHT22;6444;49.742;6.114;2023-02-01T16:57:01;7.50;99.90
12761;DHT22;6444;49.742;6.114;2023-02-01T16:59:27;7.60;99.90
12761;DHT22;6444;49.742;6.114;2023-02-01T17:01:54;7.60;99.90
12761;DHT22;6444;49.742;6.114;2023-02-01T17:04:21;7.20;99.90
12761;DHT22;6444;49.742;6.114;2023-02-01T17:06:48;7.20;99.90
12761;DHT22;6444;49.742;6.114;2023-02-01T17:09:15;7.40;99.90
12761;DHT22;6444;49.742;6.114;2023-02-01T17:11:41;7.30;99.90
12761;DHT22;6444;49.742;6.114;2023-02-01T17:14:15;7.50;99.90
12761;DHT22;6444;49.742;6.114;2023-02-01T17:16:40;7.50;99.90
12761;DHT22;6444;49.742;6.114;2023-02-01T17:19:12;7.60;99.90
12761;DHT22;6444;49.742;6.114;2023-02-01T17:21:38;7.70;99.90
12761;DHT22;6444;49.742;6.114;2023-02-01T17:24:01;7.60;99.90
12761;DHT22;6444;49.742;6.114;2023-02-01T17:26:28;7.60;99.90
12761;DHT22;6444;49.742;6.114;2023-02-01T17:28:54;7.20;99.90
12761;DHT22;6444;49.742;6.114;2023-02-01T17:31:21;7.20;99.90
12761;DHT22;6444;49.742;6.114;2023-02-01T17:33:48;7.50;99.90
12761;DHT22;6444;49.742;6.114;2023-02-01T17:36:16;7.50;99.90
12761;DHT22;6444;49.742;6.114;2023-02-01T17:38:42;7.50;99.90
12761;DHT22;6444;49.742;6.114;2023-02-01T17:41:12;7.70;99.90
12761;DHT22;6444;49.742;6.114;2023-02-01T17:43:35;7.80;99.90
12761;DHT22;6444;49.742;6.114;2023-02-01T17:46:09;8.10;99.90
12761;DHT22;6444;49.742;6.114;2023-02-01T17:48:28;8.10;99.90
12761;DHT22;6444;49.742;6.114;2023-02-01T17:50:55;7.90;99.90
12761;DHT22;6444;49.742;6.114;2023-02-01T17:53:21;7.40;99.90
12761;DHT22;6444;49.742;6.114;2023-02-01T17:55:48;7.20;99.90
12761;DHT22;6444;49.742;6.114;2023-02-01T17:58:15;7.90;99.90
12761;DHT22;6444;49.742;6.114;2023-02-01T18:00:42;7.90;99.90
12761;DHT22;6444;49.742;6.114;2023-02-01T18:03:19;7.80;99.90
12761;DHT22;6444;49.742;6.114;2023-02-01T18:05:44;7.60;99.90
12761;DHT22;6444;49.742;6.114;2023-02-01T18:08:11;7.90;99.90
12761;DHT22;6444;49.742;6.114;2023-02-01T18:10:37;7.90;99.90
12761;DHT22;6444;49.742;6.114;2023-02-01T18:13:04;7.60;99.90
12761;DHT22;6444;49.742;6.114;2023-02-01T18:15:31;7.30;99.90